createdAt,value
2023-02-11T00:00:22.853Z,20.50
2023-02-11T00:02:49.705Z,20.15
2023-02-11T00:05:16.579Z,21.02
2023-02-11T00:07:43.497Z,20.20
2023-02-11T00:10:10.413Z,21.42
2023-02-11T00:12:38.426Z,19.30
2023-02-11T00:15:07.916Z,18.02
2023-02-11T00:17:34.810Z,18.27
2023-02-11T00:20:01.922Z,17.90
2023-02-11T00:22:28.863Z,16.48
2023-02-11T00:24:57.176Z,18.53
2023-02-11T00:27:24.171Z,17.83
2023-02-11T00:29:51.067Z,18.37
2023-02-11T00:32:17.920Z,17.23
2023-02-11T00:34:47.003Z,17.83
2023-02-11T00:37:17.444Z,17.53
2023-02-11T00:39:44.721Z,17.90
2023-02-11T00:42:15.146Z,18.50
2023-02-11T00:44:42.033Z,18.75
2023-02-11T00:47:08.920Z,18.50
2023-02-11T00:49:37.043Z,19.60
2023-02-11T00:52:04.240Z,19.15
2023-02-11T00:54:33.804Z,20.45
2023-02-11T00:57:00.924Z,20.52
2023-02-11T00:59:28.216Z,19.20
2023-02-11T01:01:59.040Z,18.98
2023-02-11T01:04:26.411Z,20.23
2023-02-11T01:06:53.668Z,19.30
2023-02-11T01:09:21.245Z,19.77
2023-02-11T01:11:48.576Z,20.00
2023-02-11T01:14:16.139Z,19.23
2023-02-11T01:16:43.447Z,19.23
2023-02-11T01:19:10.601Z,18.85
2023-02-11T01:21:37.522Z,18.15
2023-02-11T01:24:04.528Z,18.20
2023-02-11T01:26:31.576Z,18.23
2023-02-11T01:29:00.868Z,18.33
2023-02-11T01:31:28.325Z,20.00
2023-02-11T01:33:55.266Z,19.62
2023-02-11T01:36:22.275Z,21.03
2023-02-11T01:38:50.017Z,18.95
2023-02-11T01:41:17.113Z,19.52
2023-02-11T01:43:47.534Z,18.95
2023-02-11T01:46:20.660Z,20.73
2023-02-11T01:48:52.560Z,19.47
2023-02-11T01:51:27.433Z,20.45
2023-02-11T01:54:14.133Z,22.02
2023-02-11T01:57:05.348Z,22.30
2023-02-11T01:59:38.748Z,20.35
2023-02-11T02:02:11.927Z,20.57
2023-02-11T02:04:46.536Z,21.05
2023-02-11T02:07:19.643Z,19.95
2023-02-11T02:09:52.693Z,20.90
2023-02-11T02:12:19.715Z,20.35
2023-02-11T02:14:46.682Z,20.20
2023-02-11T02:17:34.397Z,19.08
2023-02-11T02:20:08.467Z,17.90
2023-02-11T02:22:53.634Z,19.67
2023-02-11T02:25:36.208Z,19.77
2023-02-11T02:28:54.546Z,18.30
2023-02-11T02:31:35.717Z,19.87
2023-02-11T02:34:09.663Z,19.80
2023-02-11T02:37:06.871Z,18.55
2023-02-11T02:39:36.570Z,19.10
2023-02-11T02:42:05.756Z,19.20
2023-02-11T02:44:33.844Z,19.23
2023-02-11T02:47:00.910Z,19.95
2023-02-11T02:49:28.072Z,19.25
2023-02-11T02:51:57.549Z,19.03
2023-02-11T02:54:37.069Z,18.02
2023-02-11T02:57:41.112Z,18.55
2023-02-11T03:00:26.690Z,17.67
2023-02-11T03:03:20.931Z,19.40
2023-02-11T03:06:01.456Z,18.83
2023-02-11T03:08:34.688Z,17.33
2023-02-11T03:11:03.577Z,16.60
2023-02-11T03:13:35.956Z,18.52
2023-02-11T03:16:13.564Z,19.62
2023-02-11T03:18:43.994Z,18.23
2023-02-11T03:21:11.839Z,19.05
2023-02-11T03:23:49.898Z,18.30
2023-02-11T03:26:44.978Z,17.60
2023-02-11T03:29:19.008Z,17.20
2023-02-11T03:32:16.994Z,18.20
2023-02-11T03:35:09.962Z,17.95
2023-02-11T03:37:43.611Z,17.10
2023-02-11T03:40:19.205Z,16.10
2023-02-11T03:42:50.851Z,17.25
2023-02-11T03:45:22.079Z,18.25
2023-02-11T03:47:55.111Z,16.40
2023-02-11T03:50:23.612Z,17.20
2023-02-11T03:52:51.716Z,17.48
2023-02-11T03:55:20.826Z,16.10
2023-02-11T03:57:48.185Z,15.82
2023-02-11T04:00:15.586Z,16.05
2023-02-11T04:02:43.227Z,17.20
2023-02-11T04:05:13.106Z,17.58
2023-02-11T04:07:40.058Z,17.67
2023-02-11T04:10:08.330Z,17.27
2023-02-11T04:12:35.289Z,16.27
2023-02-11T04:15:02.110Z,17.27
2023-02-11T04:17:29.090Z,16.33
2023-02-11T04:19:56.083Z,17.20
2023-02-11T04:22:23.004Z,15.90
2023-02-11T04:24:49.977Z,16.50
2023-02-11T04:27:17.074Z,16.55
2023-02-11T04:29:43.969Z,15.05
2023-02-11T04:32:12.133Z,16.05
2023-02-11T04:34:39.159Z,16.45
2023-02-11T04:37:06.328Z,17.17
2023-02-11T04:39:33.358Z,17.90
2023-02-11T04:42:00.244Z,18.83
2023-02-11T04:44:27.291Z,17.12
2023-02-11T04:46:54.510Z,17.17
2023-02-11T04:49:21.631Z,17.35
2023-02-11T04:51:49.648Z,16.83
2023-02-11T04:54:17.284Z,17.42
2023-02-11T04:56:44.801Z,16.12
2023-02-11T04:59:13.314Z,16.95
2023-02-11T05:01:40.734Z,15.77
2023-02-11T05:04:07.999Z,17.00
2023-02-11T05:06:34.907Z,15.32
2023-02-11T05:09:01.872Z,15.88
2023-02-11T05:11:29.978Z,16.40
2023-02-11T05:13:56.902Z,16.87
2023-02-11T05:16:23.937Z,15.18
2023-02-11T05:18:52.557Z,16.62
2023-02-11T05:21:19.739Z,15.27
2023-02-11T05:23:46.696Z,16.65
2023-02-11T05:26:14.738Z,14.73
2023-02-11T05:28:42.331Z,15.93
2023-02-11T05:31:10.674Z,16.92
2023-02-11T05:33:38.008Z,19.02
2023-02-11T05:36:09.081Z,13.93
2023-02-11T05:38:36.534Z,13.93
2023-02-11T05:41:05.499Z,13.90
2023-02-11T05:43:34.855Z,13.27
2023-02-11T05:46:01.860Z,15.77
2023-02-11T05:48:28.853Z,12.73
2023-02-11T05:50:55.726Z,14.85
2023-02-11T05:53:22.679Z,13.10
2023-02-11T05:55:49.961Z,14.47
2023-02-11T05:58:17.171Z,14.95
2023-02-11T06:00:44.125Z,16.42
2023-02-11T06:03:10.989Z,15.27
2023-02-11T06:05:39.003Z,18.07
2023-02-11T06:08:05.941Z,17.58
2023-02-11T06:10:33.176Z,18.30
2023-02-11T06:13:01.070Z,15.30
2023-02-11T06:15:28.651Z,12.90
2023-02-11T06:17:55.476Z,15.10
2023-02-11T06:20:25.010Z,17.80
2023-02-11T06:22:52.055Z,15.55
2023-02-11T06:25:19.251Z,15.48
2023-02-11T06:27:46.235Z,17.63
2023-02-11T06:30:13.974Z,17.62
2023-02-11T06:32:45.627Z,17.48
2023-02-11T06:35:14.601Z,16.95
2023-02-11T06:37:42.713Z,16.93
2023-02-11T06:40:10.979Z,19.60
2023-02-11T06:42:39.327Z,18.83
2023-02-11T06:45:09.463Z,18.90
2023-02-11T06:47:37.169Z,22.87
2023-02-11T06:50:04.471Z,24.55
2023-02-11T06:52:31.474Z,25.35
2023-02-11T06:54:58.409Z,25.85
2023-02-11T06:57:25.420Z,27.37
2023-02-11T06:59:52.355Z,26.83
2023-02-11T07:02:21.014Z,28.87
2023-02-11T07:04:48.233Z,32.45
2023-02-11T07:07:15.370Z,31.45
2023-02-11T07:09:42.586Z,31.30
2023-02-11T07:12:10.468Z,29.90
2023-02-11T07:14:37.916Z,27.80
2023-02-11T07:17:05.223Z,24.42
2023-02-11T07:19:32.208Z,23.00
2023-02-11T07:21:59.284Z,22.13
2023-02-11T07:24:26.323Z,23.98
2023-02-11T07:26:53.823Z,28.08
2023-02-11T07:29:20.744Z,28.33
2023-02-11T07:31:47.755Z,26.80
2023-02-11T07:34:14.686Z,24.93
2023-02-11T07:36:43.742Z,22.65
2023-02-11T07:39:10.970Z,21.42
2023-02-11T07:41:38.404Z,20.05
2023-02-11T07:44:05.715Z,20.12
2023-02-11T07:46:34.594Z,20.50
2023-02-11T07:49:01.861Z,23.40
2023-02-11T07:51:31.145Z,24.05
2023-02-11T07:53:59.663Z,23.70
2023-02-11T07:56:28.122Z,23.60
2023-02-11T07:58:56.883Z,22.90
2023-02-11T08:01:28.296Z,23.83
2023-02-11T08:04:00.248Z,25.85
2023-02-11T08:06:29.721Z,27.90
2023-02-11T08:08:56.814Z,29.45
2023-02-11T08:11:28.765Z,30.43
2023-02-11T08:13:56.776Z,31.48
2023-02-11T08:16:26.739Z,29.92
2023-02-11T08:18:55.809Z,31.08
2023-02-11T08:21:24.232Z,29.02
2023-02-11T08:23:51.775Z,31.23
2023-02-11T08:26:21.995Z,28.38
2023-02-11T08:28:51.475Z,26.55
2023-02-11T08:31:21.799Z,25.40
2023-02-11T08:33:49.380Z,24.12
2023-02-11T08:36:23.257Z,23.70
2023-02-11T08:38:50.617Z,23.27
2023-02-11T08:41:18.284Z,24.17
2023-02-11T08:43:46.208Z,23.73
2023-02-11T08:46:19.528Z,22.20
2023-02-11T08:48:48.069Z,23.03
2023-02-11T08:51:22.987Z,23.08
2023-02-11T08:53:51.483Z,22.13
2023-02-11T08:56:23.416Z,23.02
2023-02-11T08:58:51.188Z,26.10
2023-02-11T09:01:23.074Z,27.70
2023-02-11T09:03:50.437Z,25.88
2023-02-11T09:06:18.693Z,28.70
2023-02-11T09:08:49.547Z,24.37
2023-02-11T09:11:19.489Z,26.35
2023-02-11T09:13:46.454Z,22.47
2023-02-11T09:16:22.610Z,23.52
2023-02-11T09:18:50.712Z,25.23
2023-02-11T09:21:18.981Z,25.33
2023-02-11T09:23:47.943Z,25.42
2023-02-11T09:26:16.687Z,25.43
2023-02-11T09:28:44.338Z,24.37
2023-02-11T09:31:14.303Z,24.58
2023-02-11T09:33:47.845Z,24.35
2023-02-11T09:36:17.591Z,25.02
2023-02-11T09:38:45.234Z,22.43
2023-02-11T09:41:24.065Z,22.37
2023-02-11T09:43:57.200Z,23.58
2023-02-11T09:46:26.062Z,21.70
2023-02-11T09:48:56.037Z,22.05
2023-02-11T09:51:47.386Z,20.60
2023-02-11T09:54:27.055Z,20.73
2023-02-11T09:56:54.052Z,20.88
2023-02-11T09:59:21.687Z,21.33
2023-02-11T10:02:17.181Z,21.50
2023-02-11T10:05:21.069Z,21.20
2023-02-11T10:07:59.749Z,20.40
2023-02-11T10:10:53.139Z,20.80
2023-02-11T10:13:32.780Z,20.98
2023-02-11T10:16:05.759Z,19.62
2023-02-11T10:18:51.347Z,20.90
2023-02-11T10:21:36.674Z,21.60
2023-02-11T10:24:10.521Z,21.87
2023-02-11T10:26:39.637Z,19.60
2023-02-11T10:29:42.174Z,21.00
2023-02-11T10:32:37.889Z,21.07
2023-02-11T10:35:15.608Z,20.58
2023-02-11T10:37:44.536Z,20.73
2023-02-11T10:40:28.849Z,21.52
2023-02-11T10:42:59.769Z,20.95
2023-02-11T10:45:32.676Z,20.13
2023-02-11T10:48:01.609Z,21.27
2023-02-11T10:50:33.500Z,19.80
2023-02-11T10:53:22.383Z,20.37
2023-02-11T10:55:57.422Z,18.73
2023-02-11T10:58:28.068Z,19.70
2023-02-11T11:00:58.619Z,20.35
2023-02-11T11:03:39.695Z,19.25
2023-02-11T11:06:09.113Z,20.17
2023-02-11T11:08:46.983Z,19.15
2023-02-11T11:11:19.345Z,19.03
2023-02-11T11:13:52.216Z,18.73
2023-02-11T11:16:19.170Z,19.62
2023-02-11T11:18:48.719Z,16.95
2023-02-11T11:21:23.434Z,17.87
2023-02-11T11:23:55.313Z,17.03
2023-02-11T11:26:24.503Z,17.62
2023-02-11T11:28:53.502Z,18.02
2023-02-11T11:31:47.500Z,16.80
2023-02-11T11:34:31.370Z,17.10
2023-02-11T11:37:00.786Z,15.90
2023-02-11T11:39:32.952Z,15.05
2023-02-11T11:42:01.148Z,15.63
2023-02-11T11:44:31.571Z,15.02
2023-02-11T11:47:16.689Z,15.35
2023-02-11T11:50:16.222Z,15.73
2023-02-11T11:52:56.663Z,13.13
2023-02-11T11:55:33.435Z,13.38
2023-02-11T11:58:00.894Z,13.18
2023-02-11T12:01:00.237Z,12.85
2023-02-11T12:03:47.041Z,14.13
2023-02-11T12:06:19.986Z,13.13
2023-02-11T12:09:01.087Z,13.45
2023-02-11T12:11:44.060Z,13.10
2023-02-11T12:14:28.985Z,11.90
2023-02-11T12:17:20.143Z,11.27
2023-02-11T12:20:09.070Z,11.60
2023-02-11T12:23:20.848Z,12.35
2023-02-11T12:26:20.622Z,11.25
2023-02-11T12:29:13.317Z,11.77
2023-02-11T12:32:01.980Z,12.70
2023-02-11T12:34:38.738Z,12.23
2023-02-11T12:37:33.944Z,11.50
2023-02-11T12:40:20.159Z,11.25
2023-02-11T12:43:20.849Z,12.30
2023-02-11T12:49:12.663Z,11.40
2023-02-11T12:51:57.741Z,12.35
2023-02-11T12:54:35.638Z,10.90
2023-02-11T12:57:16.475Z,11.85
2023-02-11T12:59:57.017Z,11.70
2023-02-11T13:02:42.562Z,11.35
2023-02-11T13:05:23.636Z,11.88
2023-02-11T13:07:56.944Z,10.55
2023-02-11T13:10:30.389Z,10.95
2023-02-11T13:13:18.527Z,10.73
2023-02-11T13:16:07.814Z,11.63
2023-02-11T13:18:44.960Z,10.55
2023-02-11T13:21:15.458Z,10.63
2023-02-11T13:23:56.824Z,9.93
2023-02-11T13:26:33.791Z,10.80
2023-02-11T13:29:22.380Z,10.13
2023-02-11T13:32:10.521Z,9.07
2023-02-11T13:34:41.145Z,9.07
2023-02-11T13:37:31.884Z,20.27
2023-02-11T13:40:08.071Z,12.23
2023-02-11T13:42:51.409Z,10.20
2023-02-11T13:45:39.775Z,9.45
2023-02-11T13:48:15.896Z,10.52
2023-02-11T13:50:52.514Z,9.68
2023-02-11T13:53:21.712Z,9.37
2023-02-11T13:55:53.239Z,8.50
2023-02-11T13:58:49.202Z,8.38
2023-02-11T14:02:12.151Z,10.05
2023-02-11T14:05:23.275Z,10.30
2023-02-11T14:08:43.071Z,8.83
2023-02-11T14:11:33.718Z,9.30
2023-02-11T14:14:25.598Z,8.23
2023-02-11T14:17:02.405Z,8.38
2023-02-11T14:19:33.769Z,7.93
2023-02-11T14:22:13.673Z,8.37
2023-02-11T14:25:02.637Z,8.10
2023-02-11T14:27:44.846Z,8.10
2023-02-11T14:30:39.782Z,7.87
2023-02-11T14:33:17.945Z,7.68
2023-02-11T14:36:00.257Z,7.33
2023-02-11T14:38:36.542Z,8.50
2023-02-11T14:41:11.758Z,8.38
2023-02-11T14:43:54.508Z,7.62
2023-02-11T14:46:25.074Z,8.20
2023-02-11T14:48:56.722Z,8.27
2023-02-11T14:51:40.429Z,8.90
2023-02-11T14:54:25.412Z,8.93
2023-02-11T14:57:15.039Z,8.57
2023-02-11T15:00:03.088Z,8.30
2023-02-11T15:02:38.157Z,8.60
2023-02-11T15:05:28.541Z,9.10
2023-02-11T15:07:56.383Z,8.55
2023-02-11T15:10:31.031Z,8.40
2023-02-11T15:13:01.489Z,10.55
2023-02-11T15:15:31.882Z,9.33
2023-02-11T15:18:03.685Z,9.45
2023-02-11T15:20:35.040Z,9.65
2023-02-11T15:23:09.712Z,9.35
2023-02-11T15:25:45.797Z,10.02
2023-02-11T15:28:25.908Z,9.73
2023-02-11T15:31:03.290Z,10.13
2023-02-11T15:33:32.774Z,10.57
2023-02-11T15:36:03.013Z,11.23
2023-02-11T15:38:31.889Z,10.32
2023-02-11T15:41:02.690Z,10.20
2023-02-11T15:43:54.643Z,9.45
2023-02-11T15:46:24.324Z,11.02
2023-02-11T15:48:55.487Z,11.48
2023-02-11T15:51:36.735Z,10.00
2023-02-11T15:54:15.596Z,10.10
2023-02-11T15:56:46.169Z,10.48
2023-02-11T15:59:40.777Z,11.00
2023-02-11T16:02:18.002Z,9.35
2023-02-11T16:05:02.290Z,9.88
2023-02-11T16:07:52.910Z,9.87
2023-02-11T16:10:25.098Z,9.00
2023-02-11T16:13:08.361Z,11.25
2023-02-11T16:15:39.101Z,12.10
2023-02-11T16:18:37.885Z,11.18
2023-02-11T16:21:18.026Z,10.97
2023-02-11T16:23:55.210Z,11.18
2023-02-11T16:26:39.449Z,12.82
2023-02-11T16:29:16.681Z,19.65
2023-02-11T16:31:48.854Z,13.18
2023-02-11T16:34:23.530Z,10.83
2023-02-11T16:36:52.834Z,11.18
2023-02-11T16:39:23.287Z,11.88
2023-02-11T16:41:52.632Z,11.05
2023-02-11T16:44:20.730Z,10.50
2023-02-11T16:46:49.265Z,10.77
2023-02-11T16:49:19.667Z,10.43
2023-02-11T16:51:50.842Z,10.40
2023-02-11T16:54:19.936Z,10.77
2023-02-11T16:56:48.040Z,9.77
2023-02-11T16:59:16.170Z,10.27
2023-02-11T17:01:45.651Z,10.02
2023-02-11T17:04:21.474Z,10.32
2023-02-11T17:06:49.165Z,10.88
2023-02-11T17:09:28.993Z,10.63
2023-02-11T17:11:58.772Z,10.17
2023-02-11T17:14:27.167Z,10.48
2023-02-11T17:16:55.549Z,10.43
2023-02-11T17:19:23.650Z,11.07
2023-02-11T17:21:53.155Z,11.57
2023-02-11T17:24:22.792Z,9.50
2023-02-11T17:26:51.538Z,9.65
2023-02-11T17:29:25.102Z,11.00
2023-02-11T17:31:54.402Z,9.88
2023-02-11T17:34:23.761Z,10.45
2023-02-11T17:36:52.500Z,10.00
2023-02-11T17:39:21.555Z,9.85
2023-02-11T17:41:50.232Z,9.88
2023-02-11T17:44:18.568Z,9.57
2023-02-11T17:46:46.820Z,10.50
2023-02-11T17:49:16.248Z,9.60
2023-02-11T17:51:45.890Z,10.40
2023-02-11T17:54:17.764Z,10.52
2023-02-11T17:56:49.316Z,10.20
2023-02-11T17:59:19.129Z,10.20
2023-02-11T18:01:53.472Z,10.00
2023-02-11T18:04:21.647Z,9.48
2023-02-11T18:06:50.362Z,9.27
2023-02-11T18:09:18.496Z,9.02
2023-02-11T18:11:49.040Z,9.95
2023-02-11T18:14:21.181Z,10.47
2023-02-11T18:16:53.333Z,9.60
2023-02-11T18:19:21.710Z,10.30
2023-02-11T18:21:50.912Z,10.20
2023-02-11T18:24:19.846Z,10.20
2023-02-11T18:26:48.269Z,9.73
2023-02-11T18:29:16.433Z,9.93
2023-02-11T18:31:44.482Z,10.52
2023-02-11T18:34:12.552Z,10.27
2023-02-11T18:36:41.063Z,9.88
2023-02-11T18:39:10.183Z,10.53
2023-02-11T18:41:41.862Z,9.68
2023-02-11T18:44:12.511Z,10.93
2023-02-11T18:46:41.764Z,11.40
2023-02-11T18:49:13.760Z,11.85
2023-02-11T18:51:41.917Z,11.20
2023-02-11T18:54:10.929Z,11.57
2023-02-11T18:56:39.683Z,11.12
2023-02-11T18:59:09.784Z,10.85
2023-02-11T19:01:40.331Z,11.27
2023-02-11T19:04:09.795Z,12.43
2023-02-11T19:06:38.692Z,12.77
2023-02-11T19:09:12.837Z,11.18
2023-02-11T19:11:50.490Z,11.35
2023-02-11T19:14:28.746Z,11.65
2023-02-11T19:16:58.921Z,12.43
2023-02-11T19:19:29.359Z,11.63
2023-02-11T19:22:03.172Z,12.77
2023-02-11T19:24:33.075Z,15.15
2023-02-11T19:27:04.429Z,11.93
2023-02-11T19:29:35.643Z,11.37
2023-02-11T19:32:09.325Z,11.48
2023-02-11T19:34:42.063Z,11.20
2023-02-11T19:37:13.832Z,10.02
2023-02-11T19:39:43.110Z,11.20
2023-02-11T19:42:12.768Z,10.20
2023-02-11T19:44:40.654Z,10.48
2023-02-11T19:47:10.823Z,10.98
2023-02-11T19:49:39.389Z,10.73
2023-02-11T19:52:08.423Z,10.25
2023-02-11T19:54:38.034Z,10.37
2023-02-11T19:57:09.103Z,11.10
2023-02-11T19:59:37.670Z,10.93
2023-02-11T20:02:05.504Z,9.98
2023-02-11T20:04:34.270Z,10.20
2023-02-11T20:07:02.605Z,9.63
2023-02-11T20:09:32.306Z,9.80
2023-02-11T20:12:00.110Z,10.43
2023-02-11T20:14:28.539Z,9.80
2023-02-11T20:16:57.610Z,10.20
2023-02-11T20:19:25.271Z,9.47
2023-02-11T20:21:56.273Z,9.10
2023-02-11T20:24:25.994Z,10.30
2023-02-11T20:26:57.777Z,9.77
2023-02-11T20:29:26.830Z,9.95
2023-02-11T20:31:55.771Z,8.83
2023-02-11T20:34:25.468Z,9.40
2023-02-11T20:36:55.299Z,9.43
2023-02-11T20:39:24.671Z,9.93
2023-02-11T20:41:54.524Z,10.43
2023-02-11T20:44:24.723Z,10.30
2023-02-11T20:46:54.666Z,9.90
2023-02-11T20:49:24.688Z,10.20
2023-02-11T20:51:54.759Z,10.10
2023-02-11T20:54:28.870Z,9.45
2023-02-11T20:56:58.672Z,9.37
2023-02-11T20:59:27.693Z,9.10
2023-02-11T21:01:57.400Z,10.30
2023-02-11T21:04:28.853Z,9.73
2023-02-11T21:07:03.607Z,10.30
2023-02-11T21:09:33.992Z,9.93
2023-02-11T21:12:02.611Z,10.13
2023-02-11T21:14:31.607Z,10.00
2023-02-11T21:17:01.291Z,10.02
2023-02-11T21:19:32.178Z,9.93
2023-02-11T21:22:05.120Z,9.47
2023-02-11T21:24:33.170Z,10.45
2023-02-11T21:27:01.862Z,9.95
2023-02-11T21:29:29.904Z,9.20
2023-02-11T21:31:59.185Z,10.48
2023-02-11T21:34:27.730Z,9.67
2023-02-11T21:36:55.937Z,9.18
2023-02-11T21:39:24.358Z,9.30
2023-02-11T21:41:58.743Z,10.23
2023-02-11T21:44:26.258Z,9.45
2023-02-11T21:46:54.121Z,9.43
2023-02-11T21:49:22.344Z,9.73
2023-02-11T21:51:50.305Z,9.80
2023-02-11T21:54:19.658Z,9.60
2023-02-11T21:56:50.619Z,9.18
2023-02-11T21:59:18.499Z,9.33
2023-02-11T22:01:47.869Z,9.15
2023-02-11T22:04:15.586Z,9.85
2023-02-11T22:06:43.108Z,9.23
2023-02-11T22:09:12.079Z,10.63
2023-02-11T22:11:39.428Z,10.13
2023-02-11T22:14:06.834Z,10.05
2023-02-11T22:16:34.460Z,10.68
2023-02-11T22:19:06.159Z,9.95
2023-02-11T22:21:33.406Z,10.15
2023-02-11T22:24:00.465Z,9.37
2023-02-11T22:26:28.270Z,9.07
2023-02-11T22:28:55.842Z,8.98
2023-02-11T22:31:28.715Z,9.95
2023-02-11T22:33:56.361Z,9.60
2023-02-11T22:36:26.414Z,8.93
2023-02-11T22:38:54.537Z,8.43
2023-02-11T22:41:23.169Z,9.43
2023-02-11T22:43:50.198Z,9.75
2023-02-11T22:46:19.542Z,9.30
2023-02-11T22:48:47.603Z,10.53
2023-02-11T22:51:21.008Z,10.30
2023-02-11T22:53:56.664Z,7.87
2023-02-11T22:56:24.800Z,9.85
2023-02-11T22:58:57.645Z,9.82
2023-02-11T23:01:24.865Z,9.70
2023-02-11T23:03:51.731Z,9.73
2023-02-11T23:06:18.757Z,8.98
2023-02-11T23:08:46.230Z,9.13
2023-02-11T23:11:22.552Z,9.15
2023-02-11T23:13:52.032Z,9.30
2023-02-11T23:16:22.730Z,9.27
2023-02-11T23:18:50.469Z,9.35
2023-02-11T23:21:21.173Z,8.38
2023-02-11T23:23:49.674Z,9.70
2023-02-11T23:26:18.458Z,9.37
2023-02-11T23:28:46.141Z,9.38
2023-02-11T23:31:22.239Z,9.07
2023-02-11T23:33:49.688Z,8.30
2023-02-11T23:36:18.237Z,9.43
2023-02-11T23:38:45.705Z,8.93
2023-02-11T23:41:13.980Z,8.70
2023-02-11T23:43:41.416Z,9.60
2023-02-11T23:46:08.977Z,9.27
2023-02-11T23:48:36.660Z,8.20
2023-02-11T23:51:04.335Z,8.93
2023-02-11T23:53:31.249Z,8.25
2023-02-11T23:55:58.230Z,10.20
2023-02-11T23:58:25.294Z,8.98
